sensor_id;sensor_type;location;lat;lon;timestamp;temperature;humidity
488;DHT22;16586;48.976;9.584;2023-03-26T00:00:21;9.60;68.20
488;DHT22;16586;48.976;9.584;2023-03-26T00:02:47;9.60;67.70
488;DHT22;16586;48.976;9.584;2023-03-26T00:05:14;9.60;66.60
488;DHT22;16586;48.976;9.584;2023-03-26T00:07:41;9.50;66.50
488;DHT22;16586;48.976;9.584;2023-03-26T00:10:09;9.50;65.30
488;DHT22;16586;48.976;9.584;2023-03-26T00:12:35;9.40;66.10
488;DHT22;16586;48.976;9.584;2023-03-26T00:15:04;9.30;65.60
488;DHT22;16586;48.976;9.584;2023-03-26T00:17:35;9.30;66.10
488;DHT22;16586;48.976;9.584;2023-03-26T00:20:02;9.30;66.10
488;DHT22;16586;48.976;9.584;2023-03-26T00:22:29;9.30;65.90
488;DHT22;16586;48.976;9.584;2023-03-26T00:24:56;9.30;65.90
488;DHT22;16586;48.976;9.584;2023-03-26T00:27:23;9.30;65.80
488;DHT22;16586;48.976;9.584;2023-03-26T00:29:52;9.30;66.00
488;DHT22;16586;48.976;9.584;2023-03-26T00:32:22;9.30;66.00
488;DHT22;16586;48.976;9.584;2023-03-26T00:34:52;9.30;66.30
488;DHT22;16586;48.976;9.584;2023-03-26T00:37:25;9.30;66.10
488;DHT22;16586;48.976;9.584;2023-03-26T00:39:52;9.30;65.40
488;DHT22;16586;48.976;9.584;2023-03-26T00:42:23;9.20;64.30
488;DHT22;16586;48.976;9.584;2023-03-26T00:44:50;9.00;63.90
488;DHT22;16586;48.976;9.584;2023-03-26T00:47:24;9.00;66.00
488;DHT22;16586;48.976;9.584;2023-03-26T00:49:50;9.00;65.80
488;DHT22;16586;48.976;9.584;2023-03-26T00:52:18;9.00;64.80
488;DHT22;16586;48.976;9.584;2023-03-26T00:54:44;8.90;64.70
488;DHT22;16586;48.976;9.584;2023-03-26T00:57:11;8.80;65.30
488;DHT22;16586;48.976;9.584;2023-03-26T00:59:39;8.80;65.30
488;DHT22;16586;48.976;9.584;2023-03-26T01:02:08;8.80;65.70
488;DHT22;16586;48.976;9.584;2023-03-26T01:04:38;8.70;65.60
488;DHT22;16586;48.976;9.584;2023-03-26T01:07:10;8.70;65.40
488;DHT22;16586;48.976;9.584;2023-03-26T01:09:41;8.70;64.90
488;DHT22;16586;48.976;9.584;2023-03-26T01:12:12;8.70;65.80
488;DHT22;16586;48.976;9.584;2023-03-26T01:14:41;8.60;64.70
488;DHT22;16586;48.976;9.584;2023-03-26T01:17:08;8.50;64.60
488;DHT22;16586;48.976;9.584;2023-03-26T01:19:43;8.50;64.60
488;DHT22;16586;48.976;9.584;2023-03-26T01:22:14;8.40;64.80
488;DHT22;16586;48.976;9.584;2023-03-26T01:24:43;8.40;64.50
488;DHT22;16586;48.976;9.584;2023-03-26T01:27:19;8.40;65.00
488;DHT22;16586;48.976;9.584;2023-03-26T01:29:52;8.40;66.20
488;DHT22;16586;48.976;9.584;2023-03-26T01:32:32;8.40;64.50
488;DHT22;16586;48.976;9.584;2023-03-26T01:35:17;8.30;64.80
488;DHT22;16586;48.976;9.584;2023-03-26T01:37:54;8.30;65.00
488;DHT22;16586;48.976;9.584;2023-03-26T01:40:28;8.40;65.20
488;DHT22;16586;48.976;9.584;2023-03-26T01:43:08;8.40;65.20
488;DHT22;16586;48.976;9.584;2023-03-26T01:45:39;8.60;65.30
488;DHT22;16586;48.976;9.584;2023-03-26T01:48:07;8.40;65.00
488;DHT22;16586;48.976;9.584;2023-03-26T01:50:34;8.40;65.30
488;DHT22;16586;48.976;9.584;2023-03-26T01:53:01;8.40;64.90
488;DHT22;16586;48.976;9.584;2023-03-26T01:55:34;8.40;64.80
488;DHT22;16586;48.976;9.584;2023-03-26T01:58:11;8.40;65.10
488;DHT22;16586;48.976;9.584;2023-03-26T02:00:43;8.30;64.10
488;DHT22;16586;48.976;9.584;2023-03-26T02:03:21;8.30;64.80
488;DHT22;16586;48.976;9.584;2023-03-26T02:05:53;8.20;64.40
488;DHT22;16586;48.976;9.584;2023-03-26T02:08:24;8.20;64.50
488;DHT22;16586;48.976;9.584;2023-03-26T02:11:02;8.30;64.80
488;DHT22;16586;48.976;9.584;2023-03-26T02:13:30;8.10;64.90
488;DHT22;16586;48.976;9.584;2023-03-26T02:15:58;8.30;65.40
488;DHT22;16586;48.976;9.584;2023-03-26T02:18:26;8.10;65.30
488;DHT22;16586;48.976;9.584;2023-03-26T02:21:01;8.10;65.90
488;DHT22;16586;48.976;9.584;2023-03-26T02:23:28;8.10;65.80
488;DHT22;16586;48.976;9.584;2023-03-26T02:25:54;8.20;65.20
488;DHT22;16586;48.976;9.584;2023-03-26T02:28:23;8.10;65.00
488;DHT22;16586;48.976;9.584;2023-03-26T02:30:50;8.20;64.80
488;DHT22;16586;48.976;9.584;2023-03-26T02:33:16;8.10;64.70
488;DHT22;16586;48.976;9.584;2023-03-26T02:35:43;8.00;64.90
488;DHT22;16586;48.976;9.584;2023-03-26T02:38:10;8.10;65.20
488;DHT22;16586;48.976;9.584;2023-03-26T02:40:39;8.10;64.70
488;DHT22;16586;48.976;9.584;2023-03-26T02:43:07;8.00;64.70
488;DHT22;16586;48.976;9.584;2023-03-26T02:45:35;8.00;64.50
488;DHT22;16586;48.976;9.584;2023-03-26T02:48:02;8.00;64.60
488;DHT22;16586;48.976;9.584;2023-03-26T02:50:29;7.90;63.90
488;DHT22;16586;48.976;9.584;2023-03-26T02:53:01;7.90;64.10
488;DHT22;16586;48.976;9.584;2023-03-26T02:55:28;8.00;65.00
488;DHT22;16586;48.976;9.584;2023-03-26T02:57:54;7.80;64.40
488;DHT22;16586;48.976;9.584;2023-03-26T03:00:22;7.80;64.90
488;DHT22;16586;48.976;9.584;2023-03-26T03:02:51;7.80;64.60
488;DHT22;16586;48.976;9.584;2023-03-26T03:05:18;7.80;64.80
488;DHT22;16586;48.976;9.584;2023-03-26T03:07:45;7.80;65.10
488;DHT22;16586;48.976;9.584;2023-03-26T03:10:13;7.90;65.60
488;DHT22;16586;48.976;9.584;2023-03-26T03:12:40;7.90;65.10
488;DHT22;16586;48.976;9.584;2023-03-26T03:15:08;7.80;64.30
488;DHT22;16586;48.976;9.584;2023-03-26T03:17:35;7.70;64.60
488;DHT22;16586;48.976;9.584;2023-03-26T03:20:04;7.70;65.30
488;DHT22;16586;48.976;9.584;2023-03-26T03:22:33;7.80;65.10
488;DHT22;16586;48.976;9.584;2023-03-26T03:25:00;8.10;64.60
488;DHT22;16586;48.976;9.584;2023-03-26T03:27:28;7.80;64.50
488;DHT22;16586;48.976;9.584;2023-03-26T03:29:55;7.70;64.70
488;DHT22;16586;48.976;9.584;2023-03-26T03:32:23;7.70;65.00
488;DHT22;16586;48.976;9.584;2023-03-26T03:34:50;7.70;65.20
488;DHT22;16586;48.976;9.584;2023-03-26T03:37:19;7.70;65.40
488;DHT22;16586;48.976;9.584;2023-03-26T03:39:45;7.80;65.50
488;DHT22;16586;48.976;9.584;2023-03-26T03:42:12;7.80;65.30
488;DHT22;16586;48.976;9.584;2023-03-26T03:44:39;7.90;64.90
488;DHT22;16586;48.976;9.584;2023-03-26T03:47:06;7.90;65.00
488;DHT22;16586;48.976;9.584;2023-03-26T03:49:34;7.90;64.90
488;DHT22;16586;48.976;9.584;2023-03-26T03:52:01;7.90;64.80
488;DHT22;16586;48.976;9.584;2023-03-26T03:54:29;7.90;65.10
488;DHT22;16586;48.976;9.584;2023-03-26T03:56:58;8.20;65.40
488;DHT22;16586;48.976;9.584;2023-03-26T03:59:26;7.90;65.40
488;DHT22;16586;48.976;9.584;2023-03-26T04:01:53;7.90;65.30
488;DHT22;16586;48.976;9.584;2023-03-26T04:04:19;7.90;65.50
488;DHT22;16586;48.976;9.584;2023-03-26T04:06:46;8.00;65.70
488;DHT22;16586;48.976;9.584;2023-03-26T04:09:13;8.10;65.70
488;DHT22;16586;48.976;9.584;2023-03-26T04:11:41;8.00;65.50
488;DHT22;16586;48.976;9.584;2023-03-26T04:14:08;8.00;65.40
488;DHT22;16586;48.976;9.584;2023-03-26T04:16:35;8.00;65.40
488;DHT22;16586;48.976;9.584;2023-03-26T04:19:02;8.00;65.30
488;DHT22;16586;48.976;9.584;2023-03-26T04:21:29;8.00;65.20
488;DHT22;16586;48.976;9.584;2023-03-26T04:23:56;8.10;65.00
488;DHT22;16586;48.976;9.584;2023-03-26T04:26:23;8.20;64.20
488;DHT22;16586;48.976;9.584;2023-03-26T04:28:53;8.10;64.10
488;DHT22;16586;48.976;9.584;2023-03-26T04:31:22;8.00;64.30
488;DHT22;16586;48.976;9.584;2023-03-26T04:33:54;8.10;65.60
488;DHT22;16586;48.976;9.584;2023-03-26T04:36:26;8.00;64.80
488;DHT22;16586;48.976;9.584;2023-03-26T04:38:54;8.00;65.10
488;DHT22;16586;48.976;9.584;2023-03-26T04:41:23;8.10;64.90
488;DHT22;16586;48.976;9.584;2023-03-26T04:43:52;8.10;64.50
488;DHT22;16586;48.976;9.584;2023-03-26T04:46:19;8.10;64.00
488;DHT22;16586;48.976;9.584;2023-03-26T04:48:48;8.10;64.20
488;DHT22;16586;48.976;9.584;2023-03-26T04:51:15;8.00;64.60
488;DHT22;16586;48.976;9.584;2023-03-26T04:53:45;8.00;64.80
488;DHT22;16586;48.976;9.584;2023-03-26T04:56:26;8.00;64.60
488;DHT22;16586;48.976;9.584;2023-03-26T04:58:58;8.00;64.70
488;DHT22;16586;48.976;9.584;2023-03-26T05:01:25;8.10;65.10
488;DHT22;16586;48.976;9.584;2023-03-26T05:03:53;8.00;65.30
488;DHT22;16586;48.976;9.584;2023-03-26T05:06:20;8.20;64.80
488;DHT22;16586;48.976;9.584;2023-03-26T05:08:47;8.40;64.10
488;DHT22;16586;48.976;9.584;2023-03-26T05:11:14;8.30;64.00
488;DHT22;16586;48.976;9.584;2023-03-26T05:13:41;8.10;64.20
488;DHT22;16586;48.976;9.584;2023-03-26T05:16:09;8.10;64.50
488;DHT22;16586;48.976;9.584;2023-03-26T05:18:36;8.10;64.60
488;DHT22;16586;48.976;9.584;2023-03-26T05:21:03;8.10;64.90
488;DHT22;16586;48.976;9.584;2023-03-26T05:23:30;8.20;64.80
488;DHT22;16586;48.976;9.584;2023-03-26T05:25:57;8.10;64.10
488;DHT22;16586;48.976;9.584;2023-03-26T05:28:24;8.20;64.40
488;DHT22;16586;48.976;9.584;2023-03-26T05:30:52;8.10;64.40
488;DHT22;16586;48.976;9.584;2023-03-26T05:33:20;8.10;64.80
488;DHT22;16586;48.976;9.584;2023-03-26T05:35:58;8.20;64.90
488;DHT22;16586;48.976;9.584;2023-03-26T05:38:25;8.30;63.80
488;DHT22;16586;48.976;9.584;2023-03-26T05:40:57;8.40;63.40
488;DHT22;16586;48.976;9.584;2023-03-26T05:43:23;8.20;63.80
488;DHT22;16586;48.976;9.584;2023-03-26T05:45:50;8.20;64.30
488;DHT22;16586;48.976;9.584;2023-03-26T05:48:17;8.20;64.50
488;DHT22;16586;48.976;9.584;2023-03-26T05:50:48;8.20;65.60
488;DHT22;16586;48.976;9.584;2023-03-26T05:53:15;8.30;65.20
488;DHT22;16586;48.976;9.584;2023-03-26T05:55:43;8.30;65.30
488;DHT22;16586;48.976;9.584;2023-03-26T05:58:11;8.30;65.60
488;DHT22;16586;48.976;9.584;2023-03-26T06:00:38;8.40;65.90
488;DHT22;16586;48.976;9.584;2023-03-26T06:03:05;8.40;65.80
488;DHT22;16586;48.976;9.584;2023-03-26T06:05:37;8.50;66.20
488;DHT22;16586;48.976;9.584;2023-03-26T06:08:06;8.50;66.20
488;DHT22;16586;48.976;9.584;2023-03-26T06:10:35;8.60;66.40
488;DHT22;16586;48.976;9.584;2023-03-26T06:13:02;8.70;66.10
488;DHT22;16586;48.976;9.584;2023-03-26T06:15:29;8.70;66.00
488;DHT22;16586;48.976;9.584;2023-03-26T06:17:55;8.70;65.90
488;DHT22;16586;48.976;9.584;2023-03-26T06:20:23;8.80;65.80
488;DHT22;16586;48.976;9.584;2023-03-26T06:22:50;8.80;65.70
488;DHT22;16586;48.976;9.584;2023-03-26T06:25:18;8.70;64.40
488;DHT22;16586;48.976;9.584;2023-03-26T06:27:45;8.80;65.40
488;DHT22;16586;48.976;9.584;2023-03-26T06:30:12;8.80;65.30
488;DHT22;16586;48.976;9.584;2023-03-26T06:32:39;8.70;65.10
488;DHT22;16586;48.976;9.584;2023-03-26T06:35:06;8.70;65.40
488;DHT22;16586;48.976;9.584;2023-03-26T06:37:33;8.80;65.50
488;DHT22;16586;48.976;9.584;2023-03-26T06:40:00;8.80;65.50
488;DHT22;16586;48.976;9.584;2023-03-26T06:42:28;8.80;65.10
488;DHT22;16586;48.976;9.584;2023-03-26T06:44:55;8.90;65.50
488;DHT22;16586;48.976;9.584;2023-03-26T06:47:22;8.90;65.30
488;DHT22;16586;48.976;9.584;2023-03-26T06:49:49;8.90;65.00
488;DHT22;16586;48.976;9.584;2023-03-26T06:52:15;9.00;64.70
488;DHT22;16586;48.976;9.584;2023-03-26T06:54:42;9.10;64.30
488;DHT22;16586;48.976;9.584;2023-03-26T06:57:09;9.10;64.50
488;DHT22;16586;48.976;9.584;2023-03-26T06:59:37;9.10;64.00
488;DHT22;16586;48.976;9.584;2023-03-26T07:02:04;9.20;64.70
488;DHT22;16586;48.976;9.584;2023-03-26T07:04:31;9.20;65.10
488;DHT22;16586;48.976;9.584;2023-03-26T07:07:12;9.20;65.70
488;DHT22;16586;48.976;9.584;2023-03-26T07:09:39;9.20;65.60
488;DHT22;16586;48.976;9.584;2023-03-26T07:12:06;9.20;65.40
488;DHT22;16586;48.976;9.584;2023-03-26T07:14:33;9.30;65.40
488;DHT22;16586;48.976;9.584;2023-03-26T07:17:04;9.40;65.80
488;DHT22;16586;48.976;9.584;2023-03-26T07:19:33;9.50;66.20
488;DHT22;16586;48.976;9.584;2023-03-26T07:22:00;9.50;66.00
488;DHT22;16586;48.976;9.584;2023-03-26T07:24:42;9.60;65.70
488;DHT22;16586;48.976;9.584;2023-03-26T07:27:20;9.70;65.00
488;DHT22;16586;48.976;9.584;2023-03-26T07:29:53;9.80;64.60
488;DHT22;16586;48.976;9.584;2023-03-26T07:32:30;9.80;64.60
488;DHT22;16586;48.976;9.584;2023-03-26T07:35:04;9.80;64.70
488;DHT22;16586;48.976;9.584;2023-03-26T07:37:43;9.90;65.20
488;DHT22;16586;48.976;9.584;2023-03-26T07:40:19;9.90;65.10
488;DHT22;16586;48.976;9.584;2023-03-26T07:43:00;10.10;64.10
488;DHT22;16586;48.976;9.584;2023-03-26T07:45:32;10.10;64.10
488;DHT22;16586;48.976;9.584;2023-03-26T07:48:11;10.20;64.30
488;DHT22;16586;48.976;9.584;2023-03-26T07:50:42;10.20;64.00
488;DHT22;16586;48.976;9.584;2023-03-26T07:53:09;10.30;64.40
488;DHT22;16586;48.976;9.584;2023-03-26T07:55:42;10.30;64.60
488;DHT22;16586;48.976;9.584;2023-03-26T07:58:22;10.40;64.70
488;DHT22;16586;48.976;9.584;2023-03-26T08:00:57;10.50;64.40
488;DHT22;16586;48.976;9.584;2023-03-26T08:03:50;10.60;64.30
488;DHT22;16586;48.976;9.584;2023-03-26T08:06:21;10.60;63.40
488;DHT22;16586;48.976;9.584;2023-03-26T08:08:55;10.70;60.80
488;DHT22;16586;48.976;9.584;2023-03-26T08:11:31;10.60;60.90
488;DHT22;16586;48.976;9.584;2023-03-26T08:14:07;10.50;62.10
488;DHT22;16586;48.976;9.584;2023-03-26T08:16:44;10.40;61.40
488;DHT22;16586;48.976;9.584;2023-03-26T08:19:30;10.50;61.90
488;DHT22;16586;48.976;9.584;2023-03-26T08:22:07;10.50;61.30
488;DHT22;16586;48.976;9.584;2023-03-26T08:24:41;10.50;61.50
488;DHT22;16586;48.976;9.584;2023-03-26T08:27:15;10.60;62.20
488;DHT22;16586;48.976;9.584;2023-03-26T08:29:50;10.60;62.30
488;DHT22;16586;48.976;9.584;2023-03-26T08:32:23;10.60;62.70
488;DHT22;16586;48.976;9.584;2023-03-26T08:34:51;10.60;62.90
488;DHT22;16586;48.976;9.584;2023-03-26T08:37:18;10.60;63.00
488;DHT22;16586;48.976;9.584;2023-03-26T08:39:45;10.70;63.40
488;DHT22;16586;48.976;9.584;2023-03-26T08:42:45;10.80;63.80
488;DHT22;16586;48.976;9.584;2023-03-26T08:45:45;10.80;63.60
488;DHT22;16586;48.976;9.584;2023-03-26T08:48:59;10.90;63.20
488;DHT22;16586;48.976;9.584;2023-03-26T08:52:02;10.90;62.50
488;DHT22;16586;48.976;9.584;2023-03-26T08:54:48;10.90;62.60
488;DHT22;16586;48.976;9.584;2023-03-26T08:57:47;10.90;62.60
488;DHT22;16586;48.976;9.584;2023-03-26T09:00:49;10.90;62.60
488;DHT22;16586;48.976;9.584;2023-03-26T09:03:46;10.90;62.50
488;DHT22;16586;48.976;9.584;2023-03-26T09:09:42;10.90;62.00
488;DHT22;16586;48.976;9.584;2023-03-26T09:12:47;10.90;62.00
488;DHT22;16586;48.976;9.584;2023-03-26T09:15:38;10.90;62.40
488;DHT22;16586;48.976;9.584;2023-03-26T09:18:31;10.90;62.50
488;DHT22;16586;48.976;9.584;2023-03-26T09:21:21;10.90;62.30
488;DHT22;16586;48.976;9.584;2023-03-26T09:24:21;10.80;62.80
488;DHT22;16586;48.976;9.584;2023-03-26T09:27:07;10.90;63.00
488;DHT22;16586;48.976;9.584;2023-03-26T09:29:54;10.80;63.00
488;DHT22;16586;48.976;9.584;2023-03-26T09:35:42;10.50;62.80
488;DHT22;16586;48.976;9.584;2023-03-26T09:38:28;10.40;62.60
488;DHT22;16586;48.976;9.584;2023-03-26T09:41:05;10.40;63.70
488;DHT22;16586;48.976;9.584;2023-03-26T09:43:46;10.60;64.60
488;DHT22;16586;48.976;9.584;2023-03-26T09:46:26;10.70;64.80
488;DHT22;16586;48.976;9.584;2023-03-26T09:51:55;10.90;64.30
488;DHT22;16586;48.976;9.584;2023-03-26T09:54:49;11.00;64.00
488;DHT22;16586;48.976;9.584;2023-03-26T09:57:28;11.10;64.20
488;DHT22;16586;48.976;9.584;2023-03-26T10:00:17;11.30;65.30
488;DHT22;16586;48.976;9.584;2023-03-26T10:03:06;11.80;67.50
488;DHT22;16586;48.976;9.584;2023-03-26T10:05:46;12.10;63.80
488;DHT22;16586;48.976;9.584;2023-03-26T10:08:49;12.40;61.20
488;DHT22;16586;48.976;9.584;2023-03-26T10:11:22;12.70;59.30
488;DHT22;16586;48.976;9.584;2023-03-26T10:13:59;13.10;58.20
488;DHT22;16586;48.976;9.584;2023-03-26T10:16:38;13.30;57.10
488;DHT22;16586;48.976;9.584;2023-03-26T10:19:18;13.30;54.30
488;DHT22;16586;48.976;9.584;2023-03-26T10:21:55;13.00;54.70
488;DHT22;16586;48.976;9.584;2023-03-26T10:24:47;12.90;54.80
488;DHT22;16586;48.976;9.584;2023-03-26T10:27:29;12.70;56.00
488;DHT22;16586;48.976;9.584;2023-03-26T10:30:28;12.60;56.00
488;DHT22;16586;48.976;9.584;2023-03-26T10:33:11;12.60;56.80
488;DHT22;16586;48.976;9.584;2023-03-26T10:35:46;12.70;57.90
488;DHT22;16586;48.976;9.584;2023-03-26T10:38:22;12.80;58.20
488;DHT22;16586;48.976;9.584;2023-03-26T10:40:57;13.00;57.40
488;DHT22;16586;48.976;9.584;2023-03-26T10:43:47;13.40;58.90
488;DHT22;16586;48.976;9.584;2023-03-26T10:46:35;14.70;57.20
488;DHT22;16586;48.976;9.584;2023-03-26T10:49:22;16.40;52.60
488;DHT22;16586;48.976;9.584;2023-03-26T10:51:54;18.30;49.00
488;DHT22;16586;48.976;9.584;2023-03-26T10:54:28;19.90;40.70
488;DHT22;16586;48.976;9.584;2023-03-26T10:56:59;20.80;39.20
488;DHT22;16586;48.976;9.584;2023-03-26T10:59:28;21.10;36.80
488;DHT22;16586;48.976;9.584;2023-03-26T11:02:04;21.10;34.70
488;DHT22;16586;48.976;9.584;2023-03-26T11:04:46;20.90;35.30
488;DHT22;16586;48.976;9.584;2023-03-26T11:07:20;21.10;33.30
488;DHT22;16586;48.976;9.584;2023-03-26T11:09:52;21.00;32.70
488;DHT22;16586;48.976;9.584;2023-03-26T11:12:29;21.00;33.20
488;DHT22;16586;48.976;9.584;2023-03-26T11:15:07;21.10;34.50
488;DHT22;16586;48.976;9.584;2023-03-26T11:17:47;21.60;32.20
488;DHT22;16586;48.976;9.584;2023-03-26T11:20:28;21.70;31.00
488;DHT22;16586;48.976;9.584;2023-03-26T11:23:07;21.60;29.10
488;DHT22;16586;48.976;9.584;2023-03-26T11:25:56;21.00;30.00
488;DHT22;16586;48.976;9.584;2023-03-26T11:28:37;20.20;31.40
488;DHT22;16586;48.976;9.584;2023-03-26T11:31:12;19.40;35.30
488;DHT22;16586;48.976;9.584;2023-03-26T11:33:44;19.50;34.60
488;DHT22;16586;48.976;9.584;2023-03-26T11:36:16;20.00;32.30
488;DHT22;16586;48.976;9.584;2023-03-26T11:38:46;20.40;30.80
488;DHT22;16586;48.976;9.584;2023-03-26T11:41:17;21.00;31.30
488;DHT22;16586;48.976;9.584;2023-03-26T11:43:49;22.10;30.00
488;DHT22;16586;48.976;9.584;2023-03-26T11:46:19;23.80;27.00
488;DHT22;16586;48.976;9.584;2023-03-26T11:48:48;25.50;25.60
488;DHT22;16586;48.976;9.584;2023-03-26T11:51:22;27.30;24.70
488;DHT22;16586;48.976;9.584;2023-03-26T11:53:49;28.70;22.10
488;DHT22;16586;48.976;9.584;2023-03-26T11:56:21;30.10;20.40
488;DHT22;16586;48.976;9.584;2023-03-26T11:58:54;30.50;18.70
488;DHT22;16586;48.976;9.584;2023-03-26T12:01:27;29.70;18.10
488;DHT22;16586;48.976;9.584;2023-03-26T12:03:57;28.20;19.30
488;DHT22;16586;48.976;9.584;2023-03-26T12:06:26;25.80;20.60
488;DHT22;16586;48.976;9.584;2023-03-26T12:08:54;24.00;23.00
488;DHT22;16586;48.976;9.584;2023-03-26T12:11:24;22.50;24.90
488;DHT22;16586;48.976;9.584;2023-03-26T12:13:54;20.90;26.30
488;DHT22;16586;48.976;9.584;2023-03-26T12:16:23;19.70;27.80
488;DHT22;16586;48.976;9.584;2023-03-26T12:18:59;18.90;29.30
488;DHT22;16586;48.976;9.584;2023-03-26T12:21:27;18.00;30.90
488;DHT22;16586;48.976;9.584;2023-03-26T12:23:56;17.20;35.80
488;DHT22;16586;48.976;9.584;2023-03-26T12:26:37;16.60;41.60
488;DHT22;16586;48.976;9.584;2023-03-26T12:29:08;15.90;43.50
488;DHT22;16586;48.976;9.584;2023-03-26T12:31:50;15.30;43.40
488;DHT22;16586;48.976;9.584;2023-03-26T12:34:18;14.90;43.70
488;DHT22;16586;48.976;9.584;2023-03-26T12:36:52;14.70;46.00
488;DHT22;16586;48.976;9.584;2023-03-26T12:39:28;14.60;49.00
488;DHT22;16586;48.976;9.584;2023-03-26T12:41:57;14.50;46.50
488;DHT22;16586;48.976;9.584;2023-03-26T12:44:28;14.50;46.70
488;DHT22;16586;48.976;9.584;2023-03-26T12:47:09;14.40;46.90
488;DHT22;16586;48.976;9.584;2023-03-26T12:49:39;14.50;45.90
488;DHT22;16586;48.976;9.584;2023-03-26T12:52:21;14.40;47.80
488;DHT22;16586;48.976;9.584;2023-03-26T12:54:54;14.50;46.70
488;DHT22;16586;48.976;9.584;2023-03-26T12:57:29;14.40;46.70
488;DHT22;16586;48.976;9.584;2023-03-26T13:00:06;14.30;48.00
488;DHT22;16586;48.976;9.584;2023-03-26T13:02:55;14.30;47.30
488;DHT22;16586;48.976;9.584;2023-03-26T13:05:44;14.40;43.60
488;DHT22;16586;48.976;9.584;2023-03-26T13:08:31;14.50;44.90
488;DHT22;16586;48.976;9.584;2023-03-26T13:11:07;14.70;43.00
488;DHT22;16586;48.976;9.584;2023-03-26T13:14:02;14.90;41.60
488;DHT22;16586;48.976;9.584;2023-03-26T13:16:35;15.20;38.90
488;DHT22;16586;48.976;9.584;2023-03-26T13:19:07;15.40;37.40
488;DHT22;16586;48.976;9.584;2023-03-26T13:21:42;15.60;37.40
488;DHT22;16586;48.976;9.584;2023-03-26T13:24:24;15.90;36.10
488;DHT22;16586;48.976;9.584;2023-03-26T13:27:02;16.70;33.30
488;DHT22;16586;48.976;9.584;2023-03-26T13:29:35;17.40;32.20
488;DHT22;16586;48.976;9.584;2023-03-26T13:32:13;17.80;29.20
488;DHT22;16586;48.976;9.584;2023-03-26T13:34:58;18.00;28.10
488;DHT22;16586;48.976;9.584;2023-03-26T13:37:32;18.40;29.10
488;DHT22;16586;48.976;9.584;2023-03-26T13:40:14;19.40;27.10
488;DHT22;16586;48.976;9.584;2023-03-26T13:42:48;19.80;23.90
488;DHT22;16586;48.976;9.584;2023-03-26T13:45:29;19.50;24.10
488;DHT22;16586;48.976;9.584;2023-03-26T13:48:01;19.10;23.90
488;DHT22;16586;48.976;9.584;2023-03-26T13:50:32;19.20;25.00
488;DHT22;16586;48.976;9.584;2023-03-26T13:53:05;20.00;24.80
488;DHT22;16586;48.976;9.584;2023-03-26T13:55:37;21.40;23.60
488;DHT22;16586;48.976;9.584;2023-03-26T13:58:11;22.60;21.70
488;DHT22;16586;48.976;9.584;2023-03-26T14:00:48;23.00;21.10
488;DHT22;16586;48.976;9.584;2023-03-26T14:03:23;23.00;21.70
488;DHT22;16586;48.976;9.584;2023-03-26T14:05:54;22.30;20.00
488;DHT22;16586;48.976;9.584;2023-03-26T14:08:26;21.20;20.40
488;DHT22;16586;48.976;9.584;2023-03-26T14:11:00;20.60;21.70
488;DHT22;16586;48.976;9.584;2023-03-26T14:13:34;21.10;22.20
488;DHT22;16586;48.976;9.584;2023-03-26T14:16:10;22.40;21.90
488;DHT22;16586;48.976;9.584;2023-03-26T14:18:44;24.00;19.90
488;DHT22;16586;48.976;9.584;2023-03-26T14:21:38;25.50;18.20
488;DHT22;16586;48.976;9.584;2023-03-26T14:24:40;26.40;18.70
488;DHT22;16586;48.976;9.584;2023-03-26T14:27:27;28.10;18.00
488;DHT22;16586;48.976;9.584;2023-03-26T14:30:30;29.80;16.20
488;DHT22;16586;48.976;9.584;2023-03-26T14:33:15;30.50;13.60
488;DHT22;16586;48.976;9.584;2023-03-26T14:35:53;30.30;13.40
488;DHT22;16586;48.976;9.584;2023-03-26T14:38:43;29.40;14.10
488;DHT22;16586;48.976;9.584;2023-03-26T14:41:20;28.00;15.40
488;DHT22;16586;48.976;9.584;2023-03-26T14:44:22;26.80;16.20
488;DHT22;16586;48.976;9.584;2023-03-26T14:47:02;25.50;17.40
488;DHT22;16586;48.976;9.584;2023-03-26T14:50:05;24.00;19.40
488;DHT22;16586;48.976;9.584;2023-03-26T14:52:45;22.50;19.70
488;DHT22;16586;48.976;9.584;2023-03-26T14:55:17;21.20;21.50
488;DHT22;16586;48.976;9.584;2023-03-26T14:58:01;20.20;22.30
488;DHT22;16586;48.976;9.584;2023-03-26T15:01:16;19.10;23.00
488;DHT22;16586;48.976;9.584;2023-03-26T15:04:16;18.20;25.00
488;DHT22;16586;48.976;9.584;2023-03-26T15:07:22;17.40;25.40
488;DHT22;16586;48.976;9.584;2023-03-26T15:10:10;16.80;27.30
488;DHT22;16586;48.976;9.584;2023-03-26T15:12:46;16.30;28.60
488;DHT22;16586;48.976;9.584;2023-03-26T15:18:41;15.90;28.00
488;DHT22;16586;48.976;9.584;2023-03-26T15:21:49;15.60;28.90
488;DHT22;16586;48.976;9.584;2023-03-26T15:25:04;15.40;29.20
488;DHT22;16586;48.976;9.584;2023-03-26T15:39:51;13.40;50.80
488;DHT22;16586;48.976;9.584;2023-03-26T15:42:41;12.90;51.10
488;DHT22;16586;48.976;9.584;2023-03-26T15:45:18;12.40;53.70
488;DHT22;16586;48.976;9.584;2023-03-26T15:47:55;11.90;56.60
488;DHT22;16586;48.976;9.584;2023-03-26T15:50:34;11.60;57.60
488;DHT22;16586;48.976;9.584;2023-03-26T15:53:15;11.40;60.40
488;DHT22;16586;48.976;9.584;2023-03-26T15:55:55;11.30;60.30
488;DHT22;16586;48.976;9.584;2023-03-26T15:58:25;11.00;58.00
488;DHT22;16586;48.976;9.584;2023-03-26T16:01:07;10.90;59.90
488;DHT22;16586;48.976;9.584;2023-03-26T16:03:49;10.80;59.40
488;DHT22;16586;48.976;9.584;2023-03-26T16:06:29;10.80;58.90
488;DHT22;16586;48.976;9.584;2023-03-26T16:09:19;10.80;59.80
488;DHT22;16586;48.976;9.584;2023-03-26T16:11:52;10.70;61.20
488;DHT22;16586;48.976;9.584;2023-03-26T16:14:21;10.50;61.20
488;DHT22;16586;48.976;9.584;2023-03-26T16:16:54;10.50;62.90
488;DHT22;16586;48.976;9.584;2023-03-26T16:22:34;10.30;61.60
488;DHT22;16586;48.976;9.584;2023-03-26T16:25:28;10.00;62.30
488;DHT22;16586;48.976;9.584;2023-03-26T16:28:31;9.90;63.80
488;DHT22;16586;48.976;9.584;2023-03-26T16:31:28;9.80;64.80
488;DHT22;16586;48.976;9.584;2023-03-26T16:34:19;9.70;66.80
488;DHT22;16586;48.976;9.584;2023-03-26T16:36:47;9.80;66.50
488;DHT22;16586;48.976;9.584;2023-03-26T16:39:22;9.70;66.60
488;DHT22;16586;48.976;9.584;2023-03-26T16:41:55;9.70;67.60
488;DHT22;16586;48.976;9.584;2023-03-26T16:44:30;9.70;67.70
488;DHT22;16586;48.976;9.584;2023-03-26T16:47:05;9.70;67.50
488;DHT22;16586;48.976;9.584;2023-03-26T16:49:46;9.70;67.30
488;DHT22;16586;48.976;9.584;2023-03-26T16:52:22;9.60;67.70
488;DHT22;16586;48.976;9.584;2023-03-26T16:54:59;9.60;66.40
488;DHT22;16586;48.976;9.584;2023-03-26T16:57:41;9.50;68.00
488;DHT22;16586;48.976;9.584;2023-03-26T17:00:28;9.60;69.00
488;DHT22;16586;48.976;9.584;2023-03-26T17:03:05;9.60;67.90
488;DHT22;16586;48.976;9.584;2023-03-26T17:05:48;9.50;67.10
488;DHT22;16586;48.976;9.584;2023-03-26T17:08:23;9.40;66.10
488;DHT22;16586;48.976;9.584;2023-03-26T17:10:56;9.40;67.50
488;DHT22;16586;48.976;9.584;2023-03-26T17:13:34;9.40;66.50
488;DHT22;16586;48.976;9.584;2023-03-26T17:16:10;9.30;67.80
488;DHT22;16586;48.976;9.584;2023-03-26T17:18:44;9.10;64.90
488;DHT22;16586;48.976;9.584;2023-03-26T17:21:18;9.10;65.90
488;DHT22;16586;48.976;9.584;2023-03-26T17:24:12;9.00;65.70
488;DHT22;16586;48.976;9.584;2023-03-26T17:26:49;9.10;68.70